createdAt,value
2023-03-22T00:01:53.808Z,7.55
2023-03-22T00:04:22.229Z,8.90
2023-03-22T00:06:50.659Z,6.85
2023-03-22T00:09:19.263Z,7.68
2023-03-22T00:11:50.875Z,7.57
2023-03-22T00:14:20.855Z,7.18
2023-03-22T00:16:49.439Z,8.20
2023-03-22T00:19:18.431Z,9.55
2023-03-22T00:21:47.781Z,9.13
2023-03-22T00:24:16.219Z,6.88
2023-03-22T00:26:47.037Z,7.80
2023-03-22T00:29:16.026Z,13.70
2023-03-22T00:31:45.885Z,7.13
2023-03-22T00:34:14.366Z,8.65
2023-03-22T00:36:42.972Z,13.23
2023-03-22T00:39:12.861Z,8.52
2023-03-22T00:41:41.461Z,8.57
2023-03-22T00:44:09.888Z,8.07
2023-03-22T00:46:38.580Z,9.63
2023-03-22T00:49:08.379Z,9.90
2023-03-22T00:51:36.819Z,7.97
2023-03-22T00:54:05.374Z,9.57
2023-03-22T00:56:34.046Z,11.27
2023-03-22T00:59:02.480Z,7.93
2023-03-22T01:01:30.976Z,9.40
2023-03-22T01:03:59.471Z,10.48
2023-03-22T01:06:29.300Z,9.95
2023-03-22T01:08:57.706Z,9.45
2023-03-22T01:11:26.837Z,10.38
2023-03-22T01:13:55.904Z,9.43
2023-03-22T01:16:24.411Z,8.15
2023-03-22T01:18:52.829Z,9.30
2023-03-22T01:21:21.292Z,8.15
2023-03-22T01:23:51.057Z,8.90
2023-03-22T01:26:19.477Z,12.73
2023-03-22T01:28:47.878Z,10.73
2023-03-22T01:31:16.380Z,8.95
2023-03-22T01:33:44.874Z,11.38
2023-03-22T01:36:13.381Z,10.57
2023-03-22T01:38:41.788Z,10.10
2023-03-22T01:41:11.617Z,9.95
2023-03-22T01:43:40.022Z,11.13
2023-03-22T01:46:08.462Z,9.55
2023-03-22T01:48:42.066Z,8.10
2023-03-22T01:51:12.063Z,8.50
2023-03-22T01:53:42.483Z,9.15
2023-03-22T01:56:13.665Z,12.23
2023-03-22T01:58:43.218Z,11.20
2023-03-22T02:01:11.871Z,8.15
2023-03-22T02:03:47.882Z,9.18
2023-03-22T02:06:16.558Z,10.13
2023-03-22T02:08:44.973Z,8.48
2023-03-22T02:11:16.503Z,11.90
2023-03-22T02:13:52.954Z,11.45
2023-03-22T02:16:28.313Z,9.80
2023-03-22T02:19:01.308Z,8.23
2023-03-22T02:21:50.501Z,10.98
2023-03-22T02:24:28.482Z,14.10
2023-03-22T02:27:07.527Z,9.38
2023-03-22T02:29:39.743Z,9.52
2023-03-22T02:32:26.660Z,10.05
2023-03-22T02:35:05.380Z,10.32
2023-03-22T02:37:44.845Z,8.98
2023-03-22T02:40:17.088Z,9.75
2023-03-22T02:42:51.132Z,8.98
2023-03-22T02:45:22.229Z,12.38
2023-03-22T02:47:55.629Z,11.25
2023-03-22T02:50:28.061Z,9.02
2023-03-22T02:52:59.622Z,12.27
2023-03-22T02:55:31.900Z,10.70
2023-03-22T02:58:02.604Z,11.10
2023-03-22T03:00:32.342Z,11.13
2023-03-22T03:03:03.120Z,10.88
2023-03-22T03:05:33.742Z,11.57
2023-03-22T03:08:04.130Z,10.98
2023-03-22T03:10:34.331Z,9.80
2023-03-22T03:13:02.824Z,12.18
2023-03-22T03:15:31.766Z,13.13
2023-03-22T03:18:09.279Z,10.48
2023-03-22T03:20:46.649Z,10.30
2023-03-22T03:23:24.589Z,9.35
2023-03-22T03:25:59.033Z,12.70
2023-03-22T03:28:38.283Z,12.32
2023-03-22T03:31:11.072Z,11.10
2023-03-22T03:33:41.739Z,12.75
2023-03-22T03:36:11.519Z,12.77
2023-03-22T03:38:41.004Z,10.55
2023-03-22T03:41:12.308Z,10.18
2023-03-22T03:43:41.229Z,13.10
2023-03-22T03:46:10.332Z,13.15
2023-03-22T03:48:40.228Z,13.13
2023-03-22T03:51:09.005Z,11.95
2023-03-22T03:53:37.507Z,12.30
2023-03-22T03:56:06.269Z,13.00
2023-03-22T03:58:36.067Z,13.20
2023-03-22T04:01:04.787Z,13.75
2023-03-22T04:03:33.472Z,12.45
2023-03-22T04:06:01.932Z,12.15
2023-03-22T04:08:30.376Z,15.95
2023-03-22T04:10:58.878Z,12.43
2023-03-22T04:13:27.403Z,14.80
2023-03-22T04:16:02.048Z,11.10
2023-03-22T04:18:30.772Z,12.48
2023-03-22T04:20:59.376Z,12.63
2023-03-22T04:23:27.847Z,12.45
2023-03-22T04:25:59.678Z,11.32
2023-03-22T04:28:28.531Z,13.98
2023-03-22T04:30:59.014Z,11.35
2023-03-22T04:33:27.575Z,13.43
2023-03-22T04:35:57.305Z,12.43
2023-03-22T04:38:26.163Z,13.27
2023-03-22T04:40:55.413Z,16.85
2023-03-22T04:43:23.838Z,14.85
2023-03-22T04:45:54.686Z,9.80
2023-03-22T04:48:27.998Z,12.20
2023-03-22T04:50:56.510Z,11.88
2023-03-22T04:53:27.419Z,11.25
2023-03-22T04:55:57.070Z,11.70
2023-03-22T04:58:25.776Z,12.73
2023-03-22T05:00:54.640Z,14.07
2023-03-22T05:03:24.584Z,12.18
2023-03-22T05:05:55.262Z,10.27
2023-03-22T05:08:25.948Z,10.10
2023-03-22T05:10:54.718Z,11.38
2023-03-22T05:13:23.759Z,13.00
2023-03-22T05:15:52.292Z,13.63
2023-03-22T05:18:21.850Z,10.95
2023-03-22T05:20:53.939Z,11.13
2023-03-22T05:23:22.401Z,10.65
2023-03-22T05:25:51.483Z,12.73
2023-03-22T05:28:21.425Z,12.02
2023-03-22T05:30:51.481Z,12.23
2023-03-22T05:33:21.694Z,12.40
2023-03-22T05:35:51.326Z,11.27
2023-03-22T05:38:22.868Z,10.73
2023-03-22T05:40:51.319Z,12.43
2023-03-22T05:43:20.215Z,10.75
2023-03-22T05:45:49.178Z,11.25
2023-03-22T05:48:17.913Z,12.00
2023-03-22T05:50:46.524Z,11.95
2023-03-22T05:53:15.059Z,14.13
2023-03-22T05:55:45.026Z,12.70
2023-03-22T05:58:19.000Z,9.27
2023-03-22T06:00:49.688Z,10.63
2023-03-22T06:03:18.366Z,9.73
2023-03-22T06:05:50.721Z,9.93
2023-03-22T06:08:19.216Z,8.32
2023-03-22T06:10:50.389Z,8.80
2023-03-22T06:13:19.189Z,10.10
2023-03-22T06:15:47.715Z,11.00
2023-03-22T06:18:16.315Z,8.57
2023-03-22T06:20:44.738Z,8.75
2023-03-22T06:23:13.233Z,9.40
2023-03-22T06:25:41.686Z,8.48
2023-03-22T06:28:11.565Z,10.52
2023-03-22T06:30:40.249Z,8.15
2023-03-22T06:33:08.921Z,11.80
2023-03-22T06:35:37.396Z,9.13
2023-03-22T06:38:05.846Z,8.85
2023-03-22T06:40:35.794Z,8.45
2023-03-22T06:43:06.955Z,6.40
2023-03-22T06:45:37.080Z,12.68
2023-03-22T06:48:05.594Z,9.23
2023-03-22T06:50:36.439Z,7.85
2023-03-22T06:53:04.957Z,8.68
2023-03-22T06:55:34.636Z,9.88
2023-03-22T06:58:03.102Z,9.30
2023-03-22T07:00:32.102Z,9.25
2023-03-22T07:03:02.149Z,9.55
2023-03-22T07:05:30.910Z,7.35
2023-03-22T07:07:59.361Z,11.40
2023-03-22T07:10:27.795Z,7.38
2023-03-22T07:12:56.226Z,8.45
2023-03-22T07:15:24.857Z,7.90
2023-03-22T07:17:53.734Z,7.07
2023-03-22T07:20:23.699Z,7.63
2023-03-22T07:22:52.629Z,5.85
2023-03-22T07:25:21.121Z,9.73
2023-03-22T07:27:49.619Z,8.65
2023-03-22T07:30:18.148Z,7.32
2023-03-22T07:32:46.603Z,6.18
2023-03-22T07:35:16.740Z,8.63
2023-03-22T07:37:48.828Z,4.93
2023-03-22T07:40:17.317Z,7.82
2023-03-22T07:42:45.998Z,9.07
2023-03-22T07:45:14.470Z,7.65
2023-03-22T07:47:43.127Z,6.75
2023-03-22T07:50:13.250Z,10.30
2023-03-22T07:52:41.727Z,5.63
2023-03-22T07:55:13.209Z,4.25
2023-03-22T07:57:41.876Z,7.40
2023-03-22T08:00:10.986Z,7.05
2023-03-22T08:02:40.122Z,7.53
2023-03-22T08:05:09.349Z,8.10
2023-03-22T08:07:37.847Z,6.13
2023-03-22T08:10:06.794Z,5.05
2023-03-22T08:12:36.759Z,5.15
2023-03-22T08:15:05.307Z,5.65
2023-03-22T08:17:33.854Z,6.70
2023-03-22T08:20:08.425Z,11.23
2023-03-22T08:22:36.932Z,7.50
2023-03-22T08:25:05.523Z,4.10
2023-03-22T08:27:34.125Z,4.95
2023-03-22T08:30:03.994Z,5.78
2023-03-22T08:32:32.451Z,11.88
2023-03-22T08:35:00.959Z,7.15
2023-03-22T08:37:29.392Z,5.53
2023-03-22T08:39:57.931Z,5.03
2023-03-22T08:42:26.474Z,4.60
2023-03-22T08:44:54.958Z,7.00
2023-03-22T08:47:24.787Z,5.07
2023-03-22T08:49:53.321Z,6.03
2023-03-22T08:52:21.911Z,9.13
2023-03-22T08:54:52.759Z,6.47
2023-03-22T08:57:22.314Z,5.50
2023-03-22T08:59:52.290Z,5.00
2023-03-22T09:02:21.366Z,4.32
2023-03-22T09:04:51.505Z,4.65
2023-03-22T09:07:21.458Z,4.38
2023-03-22T09:09:49.948Z,4.80
2023-03-22T09:12:18.644Z,6.07
2023-03-22T09:14:49.229Z,4.85
2023-03-22T09:17:20.160Z,6.03
2023-03-22T09:19:57.662Z,5.43
2023-03-22T09:22:32.018Z,4.47
2023-03-22T09:25:00.554Z,5.65
2023-03-22T09:27:29.182Z,5.80
2023-03-22T09:29:57.678Z,5.50
2023-03-22T09:32:26.437Z,5.32
2023-03-22T09:34:56.771Z,6.95
2023-03-22T09:37:30.529Z,4.95
2023-03-22T09:39:59.201Z,6.78
2023-03-22T09:42:31.150Z,4.47
2023-03-22T09:45:00.008Z,5.03
2023-03-22T09:47:43.896Z,4.97
2023-03-22T09:50:17.730Z,5.20
2023-03-22T09:52:46.287Z,5.88
2023-03-22T09:55:19.598Z,8.27
2023-03-22T09:57:52.309Z,5.43
2023-03-22T10:00:24.588Z,4.72
2023-03-22T10:02:56.812Z,3.75
2023-03-22T10:05:30.767Z,5.15
2023-03-22T10:08:07.685Z,5.50
2023-03-22T10:10:36.171Z,3.85
2023-03-22T10:13:07.791Z,7.75
2023-03-22T10:15:39.077Z,7.85
2023-03-22T10:18:08.783Z,4.80
2023-03-22T10:20:42.313Z,5.43
2023-03-22T10:23:14.304Z,4.93
2023-03-22T10:25:43.772Z,4.50
2023-03-22T10:28:17.659Z,7.90
2023-03-22T10:30:51.052Z,6.55
2023-03-22T10:33:24.535Z,4.90
2023-03-22T10:35:54.867Z,3.85
2023-03-22T10:38:25.702Z,6.15
2023-03-22T10:40:56.071Z,4.47
2023-03-22T10:43:27.714Z,3.92
2023-03-22T10:45:57.539Z,4.10
2023-03-22T10:48:28.457Z,7.03
2023-03-22T10:50:59.044Z,5.60
2023-03-22T10:53:30.298Z,7.30
2023-03-22T10:55:58.833Z,5.03
2023-03-22T10:58:31.082Z,7.13
2023-03-22T11:01:01.349Z,3.67
2023-03-22T11:03:31.283Z,5.85
2023-03-22T11:06:03.032Z,4.40
2023-03-22T11:08:31.567Z,4.38
2023-03-22T11:11:00.435Z,3.25
2023-03-22T11:13:29.651Z,7.05
2023-03-22T11:16:02.594Z,6.82
2023-03-22T11:18:32.878Z,4.93
2023-03-22T11:21:07.306Z,6.38
2023-03-22T11:23:38.483Z,5.47
2023-03-22T11:26:09.722Z,11.32
2023-03-22T11:28:39.066Z,7.03
2023-03-22T11:31:09.059Z,6.65
2023-03-22T11:33:38.237Z,5.03
2023-03-22T11:36:17.547Z,6.00
2023-03-22T11:38:47.252Z,4.13
2023-03-22T11:41:22.492Z,9.23
2023-03-22T11:43:54.072Z,6.32
2023-03-22T11:46:23.148Z,3.95
2023-03-22T11:48:52.696Z,4.25
2023-03-22T11:51:30.949Z,5.65
2023-03-22T11:54:04.255Z,5.43
2023-03-22T11:56:32.927Z,5.88
2023-03-22T11:59:04.908Z,4.38
2023-03-22T12:01:36.423Z,9.05
2023-03-22T12:04:07.207Z,7.30
2023-03-22T12:06:39.022Z,6.25
2023-03-22T12:09:09.784Z,4.30
2023-03-22T12:11:39.518Z,8.10
2023-03-22T12:14:10.576Z,6.65
2023-03-22T12:16:43.115Z,7.97
2023-03-22T12:19:19.037Z,5.70
2023-03-22T12:21:50.665Z,6.85
2023-03-22T12:24:24.790Z,3.13
2023-03-22T12:26:54.324Z,5.28
2023-03-22T12:29:23.144Z,5.43
2023-03-22T12:31:57.480Z,2.25
2023-03-22T12:34:27.817Z,3.45
2023-03-22T12:36:58.620Z,5.45
2023-03-22T12:39:29.218Z,4.13
2023-03-22T12:41:59.181Z,3.83
2023-03-22T12:44:29.336Z,4.75
2023-03-22T12:46:59.969Z,6.18
2023-03-22T12:49:31.192Z,4.05
2023-03-22T12:52:06.119Z,5.65
2023-03-22T12:54:35.093Z,4.85
2023-03-22T12:57:03.604Z,2.40
2023-03-22T12:59:32.942Z,5.22
2023-03-22T13:02:03.555Z,4.85
2023-03-22T13:04:33.617Z,4.93
2023-03-22T13:07:12.906Z,6.55
2023-03-22T13:09:42.648Z,3.30
2023-03-22T13:12:31.533Z,5.07
2023-03-22T13:15:01.589Z,5.60
2023-03-22T13:17:44.567Z,4.20
2023-03-22T13:20:25.856Z,4.55
2023-03-22T13:23:02.453Z,5.70
2023-03-22T13:25:32.080Z,3.45
2023-03-22T13:28:03.040Z,4.18
2023-03-22T13:30:33.354Z,7.35
2023-03-22T13:33:04.391Z,2.90
2023-03-22T13:35:41.940Z,4.40
2023-03-22T13:38:17.686Z,3.33
2023-03-22T13:40:50.044Z,4.72
2023-03-22T13:43:30.116Z,2.83
2023-03-22T13:45:59.735Z,4.82
2023-03-22T13:48:34.883Z,6.03
2023-03-22T13:51:11.505Z,5.15
2023-03-22T13:53:43.777Z,3.03
2023-03-22T13:56:14.432Z,5.80
2023-03-22T13:58:53.052Z,5.65
2023-03-22T14:01:27.995Z,4.22
2023-03-22T14:03:58.985Z,5.18
2023-03-22T14:06:29.172Z,4.63
2023-03-22T14:09:02.000Z,5.50
2023-03-22T14:11:32.214Z,6.28
2023-03-22T14:14:02.050Z,4.22
2023-03-22T14:16:42.056Z,8.25
2023-03-22T14:19:15.732Z,5.15
2023-03-22T14:21:45.406Z,5.65
